sensor_id;sensor_type;location;lat;lon;timestamp;pressure;altitude;pressure_sealevel;temperature;humidity
62025;BME280;47978;49.118;12.146;2023-11-19T09:36:30;97178.66;;;6.26;100.00
62025;BME280;47978;49.118;12.146;2023-11-19T09:40:32;97178.53;;;6.46;100.00
62025;BME280;47978;49.118;12.146;2023-11-19T09:44:33;97165.44;;;6.67;100.00
62025;BME280;47978;49.118;12.146;2023-11-19T09:48:36;97169.88;;;6.92;100.00
62025;BME280;47978;49.118;12.146;2023-11-19T09:52:39;97169.44;;;7.28;100.00
62025;BME280;47978;49.118;12.146;2023-11-19T09:56:41;97183.44;;;7.56;100.00
62025;BME280;47978;49.118;12.146;2023-11-19T10:00:43;97172.06;;;7.62;100.00
62025;BME280;47978;49.118;12.146;2023-11-19T10:04:48;97170.25;;;7.96;100.00
62025;BME280;47978;49.118;12.146;2023-11-19T10:08:52;97172.47;;;8.31;100.00
62025;BME280;47978;49.118;12.146;2023-11-19T10:12:54;97177.25;;;8.45;100.00
62025;BME280;47978;49.118;12.146;2023-11-19T10:17:00;97154.56;;;8.67;100.00
62025;BME280;47978;49.118;12.146;2023-11-19T10:21:02;97166.63;;;8.71;100.00
62025;BME280;47978;49.118;12.146;2023-11-19T10:25:05;97151.13;;;8.75;100.00
62025;BME280;47978;49.118;12.146;2023-11-19T10:29:23;97160.16;;;8.94;100.00
62025;BME280;47978;49.118;12.146;2023-11-19T10:33:29;97140.75;;;9.13;100.00
62025;BME280;47978;49.118;12.146;2023-11-19T10:37:32;97132.97;;;9.01;100.00
62025;BME280;47978;49.118;12.146;2023-11-19T10:41:35;97133.72;;;9.21;100.00
62025;BME280;47978;49.118;12.146;2023-11-19T10:45:38;97131.03;;;9.16;100.00
62025;BME280;47978;49.118;12.146;2023-11-19T10:49:40;97124.00;;;9.10;100.00
62025;BME280;47978;49.118;12.146;2023-11-19T10:53:43;97124.72;;;9.15;100.00
62025;BME280;47978;49.118;12.146;2023-11-19T10:57:46;97125.50;;;8.74;100.00
62025;BME280;47978;49.118;12.146;2023-11-19T11:01:53;97121.53;;;8.94;100.00
62025;BME280;47978;49.118;12.146;2023-11-19T11:05:55;97124.78;;;8.96;100.00
62025;BME280;47978;49.118;12.146;2023-11-19T11:09:57;97114.72;;;9.06;100.00
62025;BME280;47978;49.118;12.146;2023-11-19T11:14:02;97121.84;;;9.07;100.00
62025;BME280;47978;49.118;12.146;2023-11-19T11:18:06;97131.97;;;9.11;100.00
62025;BME280;47978;49.118;12.146;2023-11-19T11:22:10;97133.81;;;9.16;100.00
62025;BME280;47978;49.118;12.146;2023-11-19T11:26:25;97125.22;;;9.17;100.00
62025;BME280;47978;49.118;12.146;2023-11-19T11:30:54;97129.44;;;9.29;100.00
62025;BME280;47978;49.118;12.146;2023-11-19T11:35:15;97118.88;;;9.44;100.00
62025;BME280;47978;49.118;12.146;2023-11-19T11:39:22;97108.97;;;9.57;100.00
62025;BME280;47978;49.118;12.146;2023-11-19T11:43:46;97111.16;;;9.83;100.00
62025;BME280;47978;49.118;12.146;2023-11-19T11:52:18;97099.06;;;9.93;100.00
62025;BME280;47978;49.118;12.146;2023-11-19T11:56:20;97097.13;;;10.16;100.00
62025;BME280;47978;49.118;12.146;2023-11-19T12:00:22;97096.00;;;10.17;100.00
62025;BME280;47978;49.118;12.146;2023-11-19T12:04:29;97089.78;;;10.11;100.00
62025;BME280;47978;49.118;12.146;2023-11-19T12:08:34;97092.22;;;10.12;100.00
62025;BME280;47978;49.118;12.146;2023-11-19T12:12:53;97094.50;;;10.10;100.00
62025;BME280;47978;49.118;12.146;2023-11-19T12:17:03;97090.84;;;10.01;100.00
62025;BME280;47978;49.118;12.146;2023-11-19T12:21:06;97092.50;;;10.02;100.00
62025;BME280;47978;49.118;12.146;2023-11-19T12:25:08;97083.47;;;10.10;100.00
62025;BME280;47978;49.118;12.146;2023-11-19T12:29:10;97068.88;;;10.41;100.00
62025;BME280;47978;49.118;12.146;2023-11-19T12:33:12;97055.41;;;10.71;100.00
62025;BME280;47978;49.118;12.146;2023-11-19T12:37:16;97067.91;;;10.68;100.00
62025;BME280;47978;49.118;12.146;2023-11-19T12:41:18;97059.28;;;11.01;100.00
62025;BME280;47978;49.118;12.146;2023-11-19T12:45:20;97057.22;;;11.15;100.00
62025;BME280;47978;49.118;12.146;2023-11-19T12:49:22;97045.16;;;11.11;100.00
62025;BME280;47978;49.118;12.146;2023-11-19T12:53:26;97053.63;;;10.75;100.00
62025;BME280;47978;49.118;12.146;2023-11-19T12:57:38;97050.72;;;10.80;100.00
62025;BME280;47978;49.118;12.146;2023-11-19T13:01:40;97037.09;;;10.92;100.00
62025;BME280;47978;49.118;12.146;2023-11-19T13:05:42;97017.97;;;11.05;100.00
62025;BME280;47978;49.118;12.146;2023-11-19T13:09:45;97014.56;;;11.16;100.00
62025;BME280;47978;49.118;12.146;2023-11-19T13:13:54;97011.81;;;11.25;100.00
62025;BME280;47978;49.118;12.146;2023-11-19T13:17:56;97011.03;;;11.24;100.00
62025;BME280;47978;49.118;12.146;2023-11-19T13:21:57;97015.25;;;11.22;100.00
62025;BME280;47978;49.118;12.146;2023-11-19T13:26:00;97003.34;;;11.13;100.00
62025;BME280;47978;49.118;12.146;2023-11-19T13:30:04;97006.94;;;11.22;100.00
62025;BME280;47978;49.118;12.146;2023-11-19T13:34:06;97006.47;;;11.29;100.00
62025;BME280;47978;49.118;12.146;2023-11-19T13:38:08;97001.72;;;11.29;100.00
62025;BME280;47978;49.118;12.146;2023-11-19T13:42:11;97000.78;;;11.34;100.00
62025;BME280;47978;49.118;12.146;2023-11-19T13:46:14;97010.25;;;11.50;100.00
62025;BME280;47978;49.118;12.146;2023-11-19T13:50:16;96996.22;;;11.46;100.00
62025;BME280;47978;49.118;12.146;2023-11-19T13:54:18;97000.47;;;11.53;100.00
62025;BME280;47978;49.118;12.146;2023-11-19T13:58:21;97008.59;;;11.40;100.00
62025;BME280;47978;49.118;12.146;2023-11-19T14:02:22;97005.84;;;11.49;100.00
62025;BME280;47978;49.118;12.146;2023-11-19T14:06:24;97002.25;;;11.40;100.00
62025;BME280;47978;49.118;12.146;2023-11-19T14:10:26;97002.22;;;11.31;100.00
62025;BME280;47978;49.118;12.146;2023-11-19T14:14:28;97010.53;;;11.40;100.00
62025;BME280;47978;49.118;12.146;2023-11-19T14:18:33;96998.50;;;11.44;100.00
62025;BME280;47978;49.118;12.146;2023-11-19T14:22:34;96999.63;;;11.52;100.00
62025;BME280;47978;49.118;12.146;2023-11-19T14:26:36;97012.03;;;11.55;100.00
62025;BME280;47978;49.118;12.146;2023-11-19T14:30:39;97012.53;;;11.57;100.00
62025;BME280;47978;49.118;12.146;2023-11-19T14:34:41;97006.50;;;11.55;100.00
62025;BME280;47978;49.118;12.146;2023-11-19T14:38:43;97006.47;;;11.37;100.00
62025;BME280;47978;49.118;12.146;2023-11-19T14:42:44;97003.56;;;10.85;100.00
62025;BME280;47978;49.118;12.146;2023-11-19T14:46:47;97014.75;;;10.18;100.00
62025;BME280;47978;49.118;12.146;2023-11-19T14:50:49;97002.50;;;10.10;100.00
62025;BME280;47978;49.118;12.146;2023-11-19T14:54:50;97006.22;;;9.83;100.00
62025;BME280;47978;49.118;12.146;2023-11-19T14:58:52;97002.38;;;10.38;100.00
62025;BME280;47978;49.118;12.146;2023-11-19T15:02:55;96992.84;;;10.92;100.00
62025;BME280;47978;49.118;12.146;2023-11-19T15:06:57;96999.66;;;10.86;100.00
62025;BME280;47978;49.118;12.146;2023-11-19T15:10:59;96998.50;;;10.78;100.00
62025;BME280;47978;49.118;12.146;2023-11-19T15:15:04;96999.81;;;10.81;100.00
62025;BME280;47978;49.118;12.146;2023-11-19T15:19:07;96995.13;;;10.82;100.00
62025;BME280;47978;49.118;12.146;2023-11-19T15:23:09;97002.34;;;10.60;100.00
62025;BME280;47978;49.118;12.146;2023-11-19T15:27:11;97004.41;;;10.54;100.00
62025;BME280;47978;49.118;12.146;2023-11-19T15:31:15;97004.00;;;10.39;100.00
62025;BME280;47978;49.118;12.146;2023-11-19T15:35:18;96997.31;;;10.31;100.00
62025;BME280;47978;49.118;12.146;2023-11-19T15:39:20;96997.78;;;9.43;100.00
62025;BME280;47978;49.118;12.146;2023-11-19T15:43:21;96995.41;;;8.45;100.00
62025;BME280;47978;49.118;12.146;2023-11-19T15:47:23;97005.38;;;7.94;100.00
62025;BME280;47978;49.118;12.146;2023-11-19T15:51:26;97000.66;;;7.62;100.00
62025;BME280;47978;49.118;12.146;2023-11-19T15:55:27;97008.25;;;7.51;100.00
62025;BME280;47978;49.118;12.146;2023-11-19T15:59:29;97012.47;;;7.25;100.00
62025;BME280;47978;49.118;12.146;2023-11-19T16:03:31;97014.41;;;7.05;100.00
62025;BME280;47978;49.118;12.146;2023-11-19T16:07:53;97021.59;;;7.01;100.00
62025;BME280;47978;49.118;12.146;2023-11-19T16:11:54;97031.69;;;7.06;100.00
62025;BME280;47978;49.118;12.146;2023-11-19T16:15:57;97029.63;;;6.97;100.00
62025;BME280;47978;49.118;12.146;2023-11-19T16:19:59;97026.00;;;6.78;100.00
62025;BME280;47978;49.118;12.146;2023-11-19T16:24:02;97033.66;;;6.81;100.00
62025;BME280;47978;49.118;12.146;2023-11-19T16:28:04;97036.94;;;6.83;100.00
62025;BME280;47978;49.118;12.146;2023-11-19T16:32:06;97035.09;;;7.40;100.00
62025;BME280;47978;49.118;12.146;2023-11-19T16:36:08;97042.88;;;7.14;100.00
62025;BME280;47978;49.118;12.146;2023-11-19T16:40:12;97042.78;;;7.19;100.00
62025;BME280;47978;49.118;12.146;2023-11-19T16:44:14;97050.03;;;7.72;100.00
62025;BME280;47978;49.118;12.146;2023-11-19T16:48:15;97037.69;;;7.51;100.00
62025;BME280;47978;49.118;12.146;2023-11-19T16:52:17;97040.56;;;7.21;100.00
62025;BME280;47978;49.118;12.146;2023-11-19T16:56:20;97039.88;;;7.11;100.00
62025;BME280;47978;49.118;12.146;2023-11-19T17:00:22;97036.97;;;7.02;100.00
62025;BME280;47978;49.118;12.146;2023-11-19T17:04:23;97045.91;;;6.70;100.00
62025;BME280;47978;49.118;12.146;2023-11-19T17:08:25;97055.31;;;6.64;100.00
62025;BME280;47978;49.118;12.146;2023-11-19T17:12:28;97054.41;;;6.44;100.00
62025;BME280;47978;49.118;12.146;2023-11-19T17:16:30;97062.81;;;6.29;100.00
62025;BME280;47978;49.118;12.146;2023-11-19T17:20:32;97063.84;;;6.33;100.00
62025;BME280;47978;49.118;12.146;2023-11-19T17:24:33;97062.72;;;6.34;100.00
62025;BME280;47978;49.118;12.146;2023-11-19T17:28:36;97086.09;;;6.31;100.00
62025;BME280;47978;49.118;12.146;2023-11-19T17:32:38;97070.72;;;6.30;100.00
62025;BME280;47978;49.118;12.146;2023-11-19T17:36:40;97081.19;;;6.28;100.00
62025;BME280;47978;49.118;12.146;2023-11-19T17:40:41;97087.94;;;6.12;100.00
62025;BME280;47978;49.118;12.146;2023-11-19T17:44:44;97095.91;;;6.08;100.00
62025;BME280;47978;49.118;12.146;2023-11-19T17:48:46;97088.44;;;6.14;100.00
62025;BME280;47978;49.118;12.146;2023-11-19T17:52:48;97083.66;;;6.30;100.00
62025;BME280;47978;49.118;12.146;2023-11-19T17:56:49;97076.09;;;6.12;100.00
62025;BME280;47978;49.118;12.146;2023-11-19T18:00:52;97079.75;;;6.07;100.00
62025;BME280;47978;49.118;12.146;2023-11-19T18:04:54;97093.34;;;6.17;100.00
62025;BME280;47978;49.118;12.146;2023-11-19T18:08:55;97080.38;;;6.28;100.00
62025;BME280;47978;49.118;12.146;2023-11-19T18:12:57;97084.00;;;6.23;100.00
62025;BME280;47978;49.118;12.146;2023-11-19T18:17:00;97088.72;;;6.18;100.00
62025;BME280;47978;49.118;12.146;2023-11-19T18:21:02;97095.41;;;6.36;100.00
62025;BME280;47978;49.118;12.146;2023-11-19T18:25:04;97094.53;;;6.40;100.00
62025;BME280;47978;49.118;12.146;2023-11-19T18:29:06;97093.19;;;8.28;100.00
62025;BME280;47978;49.118;12.146;2023-11-19T18:33:09;97102.22;;;8.81;100.00
62025;BME280;47978;49.118;12.146;2023-11-19T18:37:11;97072.53;;;9.05;100.00
62025;BME280;47978;49.118;12.146;2023-11-19T18:41:12;97077.63;;;9.12;100.00
62025;BME280;47978;49.118;12.146;2023-11-19T18:49:29;97103.16;;;9.17;100.00
62025;BME280;47978;49.118;12.146;2023-11-19T18:53:31;97104.19;;;9.21;100.00
62025;BME280;47978;49.118;12.146;2023-11-19T18:57:33;97114.41;;;9.21;100.00
62025;BME280;47978;49.118;12.146;2023-11-19T19:01:34;97119.28;;;9.24;100.00
62025;BME280;47978;49.118;12.146;2023-11-19T19:05:37;97109.91;;;9.25;100.00
62025;BME280;47978;49.118;12.146;2023-11-19T19:09:39;97115.13;;;9.27;100.00
62025;BME280;47978;49.118;12.146;2023-11-19T19:13:40;97118.91;;;9.17;100.00
62025;BME280;47978;49.118;12.146;2023-11-19T19:17:42;97090.09;;;9.09;100.00
62025;BME280;47978;49.118;12.146;2023-11-19T19:21:45;97106.63;;;9.09;100.00
62025;BME280;47978;49.118;12.146;2023-11-19T19:25:47;97110.63;;;9.03;100.00
62025;BME280;47978;49.118;12.146;2023-11-19T19:29:48;97111.13;;;8.91;100.00
62025;BME280;47978;49.118;12.146;2023-11-19T19:33:50;97121.91;;;8.88;100.00
62025;BME280;47978;49.118;12.146;2023-11-19T19:37:53;97125.22;;;9.04;100.00
62025;BME280;47978;49.118;12.146;2023-11-19T19:41:54;97129.50;;;9.10;100.00
62025;BME280;47978;49.118;12.146;2023-11-19T19:45:56;97134.91;;;8.87;100.00
62025;BME280;47978;49.118;12.146;2023-11-19T19:49:58;97127.88;;;8.48;100.00
62025;BME280;47978;49.118;12.146;2023-11-19T19:54:01;97132.88;;;8.46;100.00
62025;BME280;47978;49.118;12.146;2023-11-19T19:58:02;97132.75;;;8.00;100.00
62025;BME280;47978;49.118;12.146;2023-11-19T20:02:04;97117.38;;;7.80;100.00
62025;BME280;47978;49.118;12.146;2023-11-19T20:06:06;97123.19;;;7.35;100.00
62025;BME280;47978;49.118;12.146;2023-11-19T20:10:10;97133.72;;;7.28;100.00
62025;BME280;47978;49.118;12.146;2023-11-19T20:14:12;97139.69;;;7.97;100.00
62025;BME280;47978;49.118;12.146;2023-11-19T20:18:13;97133.53;;;8.19;100.00
62025;BME280;47978;49.118;12.146;2023-11-19T20:22:15;97144.34;;;8.34;100.00
62025;BME280;47978;49.118;12.146;2023-11-19T20:26:18;97159.59;;;8.46;100.00
62025;BME280;47978;49.118;12.146;2023-11-19T20:30:20;97155.03;;;8.55;100.00
62025;BME280;47978;49.118;12.146;2023-11-19T20:34:21;97161.63;;;8.73;100.00
62025;BME280;47978;49.118;12.146;2023-11-19T20:38:23;97158.13;;;8.67;100.00
62025;BME280;47978;49.118;12.146;2023-11-19T20:42:26;97162.25;;;8.84;100.00
62025;BME280;47978;49.118;12.146;2023-11-19T20:46:28;97173.72;;;8.91;100.00
62025;BME280;47978;49.118;12.146;2023-11-19T20:50:29;97163.88;;;8.85;100.00
62025;BME280;47978;49.118;12.146;2023-11-19T20:54:31;97166.75;;;8.80;100.00
62025;BME280;47978;49.118;12.146;2023-11-19T20:58:37;97183.09;;;8.90;100.00
62025;BME280;47978;49.118;12.146;2023-11-19T21:02:38;97169.41;;;8.85;100.00
62025;BME280;47978;49.118;12.146;2023-11-19T21:06:40;97163.56;;;8.72;100.00
62025;BME280;47978;49.118;12.146;2023-11-19T21:10:44;97165.91;;;8.65;100.00
62025;BME280;47978;49.118;12.146;2023-11-19T21:14:47;97168.81;;;8.36;100.00
62025;BME280;47978;49.118;12.146;2023-11-19T21:18:49;97169.63;;;8.37;100.00
62025;BME280;47978;49.118;12.146;2023-11-19T21:22:51;97165.00;;;7.56;100.00
62025;BME280;47978;49.118;12.146;2023-11-19T21:26:52;97176.34;;;7.26;100.00
62025;BME280;47978;49.118;12.146;2023-11-19T21:30:56;97182.09;;;6.76;100.00
62025;BME280;47978;49.118;12.146;2023-11-19T21:34:58;97178.53;;;6.46;100.00
62025;BME280;47978;49.118;12.146;2023-11-19T21:39:00;97174.28;;;6.25;100.00
62025;BME280;47978;49.118;12.146;2023-11-19T21:43:01;97166.97;;;6.15;100.00
62025;BME280;47978;49.118;12.146;2023-11-19T21:47:05;97168.78;;;5.80;100.00
62025;BME280;47978;49.118;12.146;2023-11-19T21:51:07;97171.59;;;5.70;100.00
62025;BME280;47978;49.118;12.146;2023-11-19T21:55:09;97163.97;;;5.57;100.00
62025;BME280;47978;49.118;12.146;2023-11-19T21:59:11;97172.22;;;5.52;100.00
62025;BME280;47978;49.118;12.146;2023-11-19T22:03:14;97171.72;;;5.50;100.00
62025;BME280;47978;49.118;12.146;2023-11-19T22:07:16;97169.31;;;5.28;100.00
62025;BME280;47978;49.118;12.146;2023-11-19T22:11:18;97167.16;;;5.19;100.00
62025;BME280;47978;49.118;12.146;2023-11-19T22:15:19;97169.41;;;5.07;100.00
62025;BME280;47978;49.118;12.146;2023-11-19T22:19:22;97175.72;;;4.97;100.00
62025;BME280;47978;49.118;12.146;2023-11-19T22:23:24;97180.38;;;5.02;100.00
62025;BME280;47978;49.118;12.146;2023-11-19T22:27:25;97176.31;;;4.79;100.00
62025;BME280;47978;49.118;12.146;2023-11-19T22:31:31;97183.41;;;4.90;100.00
62025;BME280;47978;49.118;12.146;2023-11-19T22:35:34;97179.56;;;4.86;100.00
62025;BME280;47978;49.118;12.146;2023-11-19T22:39:36;97175.19;;;4.80;100.00
62025;BME280;47978;49.118;12.146;2023-11-19T22:43:37;97167.28;;;4.73;100.00
62025;BME280;47978;49.118;12.146;2023-11-19T22:47:39;97170.56;;;4.65;100.00
62025;BME280;47978;49.118;12.146;2023-11-19T22:51:42;97170.84;;;4.69;100.00
62025;BME280;47978;49.118;12.146;2023-11-19T22:55:43;97169.97;;;4.89;100.00
62025;BME280;47978;49.118;12.146;2023-11-19T22:59:45;97153.94;;;5.37;100.00
62025;BME280;47978;49.118;12.146;2023-11-19T23:03:47;97157.75;;;5.96;100.00
62025;BME280;47978;49.118;12.146;2023-11-19T23:07:50;97165.44;;;5.44;100.00
62025;BME280;47978;49.118;12.146;2023-11-19T23:11:51;97165.44;;;5.39;100.00
62025;BME280;47978;49.118;12.146;2023-11-19T23:15:53;97161.94;;;5.23;100.00
62025;BME280;47978;49.118;12.146;2023-11-19T23:19:55;97169.91;;;5.19;100.00
62025;BME280;47978;49.118;12.146;2023-11-19T23:24:09;97161.69;;;5.19;100.00
62025;BME280;47978;49.118;12.146;2023-11-19T23:28:11;97168.78;;;5.26;100.00
62025;BME280;47978;49.118;12.146;2023-11-19T23:32:13;97169.03;;;5.29;100.00
62025;BME280;47978;49.118;12.146;2023-11-19T23:36:14;97168.16;;;5.44;100.00
62025;BME280;47978;49.118;12.146;2023-11-19T23:40:17;97174.13;;;5.61;100.00
62025;BME280;47978;49.118;12.146;2023-11-19T23:44:19;97170.50;;;5.71;100.00
62025;BME280;47978;49.118;12.146;2023-11-19T23:48:21;97177.75;;;6.01;100.00
62025;BME280;47978;49.118;12.146;2023-11-19T23:52:22;97171.50;;;6.30;100.00
62025;BME280;47978;49.118;12.146;2023-11-19T23:56:25;97173.44;;;6.29;100.00
